Pass Christian, Mississippi
Current Conditions -  °F | °C
As of 7:53 PM on Monday 24 Nov 2014 (Local Time) from KGPT Reporting Station
Clear Clear  
Wind Chill: 60°   Ceiling: Unl
Heat Index: 60°   Visibility: 10mi
Dew Point: 46°   Wind: 8mph
Humidity: 60%   Direction: 350°N
Pressure: 29.99"   Gusts: NA
Location:  30.32°N, 89.22°W
Report Text: KGPT 250153Z 35007KT 10SM CLR 16/08 A2999 RMK AO2 SLP154 T01560078
Loading
Personal Weather Stations






























Interactive Weather Map New forecast layout! Learn more

10-Day Weather Forecast

Advertisements
Track Severe Weather on mobile